createdAt,value
2023-04-22T00:00:56.679Z,9.72
2023-04-22T00:03:26.251Z,9.67
2023-04-22T00:05:54.759Z,9.69
2023-04-22T00:08:23.000Z,9.62
2023-04-22T00:10:51.159Z,9.66
2023-04-22T00:13:19.658Z,9.60
2023-04-22T00:15:47.778Z,9.66
2023-04-22T00:18:16.283Z,9.66
2023-04-22T00:20:46.104Z,9.67
2023-04-22T00:23:15.941Z,9.60
2023-04-22T00:25:44.107Z,9.42
2023-04-22T00:28:12.359Z,9.48
2023-04-22T00:30:40.438Z,9.37
2023-04-22T00:33:08.449Z,9.37
2023-04-22T00:35:36.839Z,9.23
2023-04-22T00:38:07.225Z,9.11
2023-04-22T00:40:36.893Z,9.17
2023-04-22T00:43:05.116Z,9.24
2023-04-22T00:45:33.399Z,9.07
2023-04-22T00:48:02.149Z,9.08
2023-04-22T00:50:32.528Z,8.95
2023-04-22T00:53:00.656Z,9.06
2023-04-22T00:55:31.113Z,8.93
2023-04-22T00:58:03.350Z,8.56
2023-04-22T01:00:32.028Z,8.60
2023-04-22T01:03:00.333Z,8.44
2023-04-22T01:05:31.009Z,8.40
2023-04-22T01:08:01.306Z,8.30
2023-04-22T01:10:30.985Z,8.19
2023-04-22T01:12:58.884Z,8.17
2023-04-22T01:15:28.929Z,8.05
2023-04-22T01:17:58.208Z,8.00
2023-04-22T01:20:29.713Z,7.95
2023-04-22T01:22:58.360Z,7.97
2023-04-22T01:25:29.474Z,7.93
2023-04-22T01:27:58.337Z,8.08
2023-04-22T01:30:26.871Z,8.11
2023-04-22T01:32:55.089Z,8.07
2023-04-22T01:35:23.365Z,7.97
2023-04-22T01:37:53.134Z,8.04
2023-04-22T01:40:23.619Z,8.14
2023-04-22T01:42:55.104Z,8.22
2023-04-22T01:45:24.761Z,8.33
2023-04-22T01:47:52.758Z,8.44
2023-04-22T01:50:22.107Z,8.62
2023-04-22T01:52:51.510Z,8.70
2023-04-22T01:55:19.836Z,8.83
2023-04-22T01:57:47.909Z,8.86
2023-04-22T02:00:18.079Z,8.87
2023-04-22T02:02:46.197Z,8.71
2023-04-22T02:05:15.098Z,8.95
2023-04-22T02:07:43.089Z,8.98
2023-04-22T02:10:14.641Z,8.86
2023-04-22T02:12:42.798Z,8.98
2023-04-22T02:15:12.391Z,8.87
2023-04-22T02:17:43.850Z,8.86
2023-04-22T02:20:13.145Z,8.89
2023-04-22T02:22:43.488Z,8.89
2023-04-22T02:25:14.314Z,9.01
2023-04-22T02:27:42.594Z,8.63
2023-04-22T02:30:11.196Z,8.89
2023-04-22T02:32:40.351Z,8.81
2023-04-22T02:35:11.898Z,8.95
2023-04-22T02:37:40.748Z,9.02
2023-04-22T02:40:09.882Z,8.96
2023-04-22T02:42:38.000Z,8.88
2023-04-22T02:45:07.464Z,8.77
2023-04-22T02:47:35.867Z,8.74
2023-04-22T02:50:05.643Z,8.68
2023-04-22T02:52:36.078Z,8.77
2023-04-22T02:55:04.039Z,8.73
2023-04-22T02:57:32.024Z,8.70
2023-04-22T03:00:00.215Z,8.61
2023-04-22T03:02:28.252Z,8.58
2023-04-22T03:04:56.553Z,8.52
2023-04-22T03:07:24.552Z,8.48
2023-04-22T03:09:55.984Z,8.51
2023-04-22T03:12:24.102Z,8.45
2023-04-22T03:14:52.190Z,8.46
2023-04-22T03:17:20.825Z,8.37
2023-04-22T03:19:49.022Z,8.33
2023-04-22T03:22:17.191Z,8.34
2023-04-22T03:24:45.147Z,8.48
2023-04-22T03:27:15.871Z,8.47
2023-04-22T03:29:44.012Z,8.33
2023-04-22T03:32:12.517Z,8.26
2023-04-22T03:34:40.587Z,8.24
2023-04-22T03:37:09.120Z,8.15
2023-04-22T03:39:39.134Z,8.18
2023-04-22T03:42:07.562Z,8.23
2023-04-22T03:44:37.464Z,8.25
2023-04-22T03:47:05.605Z,8.18
2023-04-22T03:49:34.473Z,8.24
2023-04-22T03:52:02.883Z,8.33
2023-04-22T03:54:31.128Z,8.40
2023-04-22T03:56:59.457Z,8.42
2023-04-22T03:59:27.475Z,8.38
2023-04-22T04:01:57.224Z,8.40
2023-04-22T04:04:25.605Z,8.46
2023-04-22T04:06:54.130Z,8.45
2023-04-22T04:09:22.458Z,8.26
2023-04-22T04:11:50.935Z,8.61
2023-04-22T04:14:19.040Z,8.58
2023-04-22T04:16:47.185Z,8.46
2023-04-22T04:19:16.836Z,8.61
2023-04-22T04:21:45.545Z,8.62
2023-04-22T04:24:13.552Z,8.51
2023-04-22T04:26:42.596Z,8.62
2023-04-22T04:29:10.905Z,8.72
2023-04-22T04:31:39.122Z,8.75
2023-04-22T04:34:07.546Z,8.89
2023-04-22T04:36:39.962Z,9.00
2023-04-22T04:39:09.787Z,8.72
2023-04-22T04:41:39.033Z,8.99
2023-04-22T04:44:07.095Z,9.02
2023-04-22T04:46:37.979Z,9.16
2023-04-22T04:49:06.681Z,9.31
2023-04-22T04:51:36.068Z,9.21
2023-04-22T04:54:04.241Z,9.08
2023-04-22T04:56:32.808Z,9.19
2023-04-22T04:59:00.706Z,9.30
2023-04-22T05:01:28.745Z,9.42
2023-04-22T05:03:57.290Z,9.58
2023-04-22T05:06:25.701Z,9.70
2023-04-22T05:08:55.237Z,9.75
2023-04-22T05:11:23.298Z,9.49
2023-04-22T05:13:51.419Z,10.00
2023-04-22T05:16:19.551Z,9.75
2023-04-22T05:18:47.621Z,9.94
2023-04-22T05:21:16.867Z,9.96
2023-04-22T05:23:44.842Z,9.87
2023-04-22T05:26:14.317Z,9.75
2023-04-22T05:28:42.421Z,9.82
2023-04-22T05:31:10.430Z,9.80
2023-04-22T05:33:38.562Z,9.97
2023-04-22T05:36:07.391Z,10.23
2023-04-22T05:38:35.441Z,10.56
2023-04-22T05:41:03.313Z,10.79
2023-04-22T05:43:33.817Z,10.80
2023-04-22T05:46:01.949Z,10.80
2023-04-22T05:48:29.995Z,11.06
2023-04-22T05:50:58.244Z,11.47
2023-04-22T05:53:26.294Z,12.01
2023-04-22T05:55:55.420Z,12.63
2023-04-22T05:58:23.364Z,13.05
2023-04-22T06:00:52.762Z,12.83
2023-04-22T06:03:21.160Z,12.60
2023-04-22T06:05:49.374Z,12.22
2023-04-22T06:08:17.977Z,12.14
2023-04-22T06:10:46.267Z,12.39
2023-04-22T06:13:14.334Z,12.64
2023-04-22T06:15:42.563Z,12.94
2023-04-22T06:18:11.980Z,13.10
2023-04-22T06:20:40.347Z,13.53
2023-04-22T06:23:08.346Z,13.59
2023-04-22T06:25:37.099Z,13.63
2023-04-22T06:28:05.410Z,13.69
2023-04-22T06:30:33.474Z,13.90
2023-04-22T06:33:01.494Z,13.86
2023-04-22T06:35:31.142Z,13.74
2023-04-22T06:37:59.312Z,13.44
2023-04-22T06:40:27.767Z,13.24
2023-04-22T06:42:56.106Z,13.47
2023-04-22T06:45:24.221Z,13.93
2023-04-22T06:47:54.198Z,14.27
2023-04-22T06:50:22.256Z,14.36
2023-04-22T06:52:51.857Z,14.35
2023-04-22T06:55:22.666Z,14.66
2023-04-22T06:57:53.738Z,14.67
2023-04-22T07:00:21.750Z,14.40
2023-04-22T07:02:49.992Z,14.50
2023-04-22T07:05:18.195Z,14.79
2023-04-22T07:07:46.549Z,15.08
2023-04-22T07:10:18.573Z,15.21
2023-04-22T07:12:46.561Z,15.10
2023-04-22T07:15:15.037Z,14.81
2023-04-22T07:17:49.810Z,14.86
2023-04-22T07:20:17.863Z,15.12
2023-04-22T07:22:46.025Z,15.20
2023-04-22T07:25:16.071Z,15.14
2023-04-22T07:27:44.000Z,15.59
2023-04-22T07:30:13.711Z,15.59
2023-04-22T07:32:41.686Z,15.67
2023-04-22T07:35:10.238Z,15.76
2023-04-22T07:37:40.047Z,15.91
2023-04-22T07:40:12.113Z,15.96
2023-04-22T07:42:41.700Z,16.36
2023-04-22T07:45:10.053Z,16.08
2023-04-22T07:47:37.991Z,15.91
2023-04-22T07:50:07.477Z,15.86
2023-04-22T07:52:35.462Z,15.73
2023-04-22T07:55:03.510Z,15.81
2023-04-22T07:57:32.946Z,16.10
2023-04-22T08:00:02.956Z,15.78
2023-04-22T08:02:31.241Z,15.93
2023-04-22T08:04:59.282Z,15.61
2023-04-22T08:07:33.039Z,15.68
2023-04-22T08:10:01.692Z,15.88
2023-04-22T08:12:29.743Z,15.90
2023-04-22T08:14:58.182Z,15.79
2023-04-22T08:17:28.220Z,15.59
2023-04-22T08:19:57.828Z,15.93
2023-04-22T08:22:25.763Z,16.16
2023-04-22T08:24:53.646Z,15.93
2023-04-22T08:27:23.067Z,16.24
2023-04-22T08:29:51.284Z,16.47
2023-04-22T08:32:20.085Z,16.81
2023-04-22T08:34:51.804Z,16.96
2023-04-22T08:37:21.978Z,17.19
2023-04-22T08:39:50.339Z,16.59
2023-04-22T08:42:19.217Z,16.21
2023-04-22T08:44:48.234Z,16.27
2023-04-22T08:47:17.914Z,16.52
2023-04-22T08:49:47.934Z,16.57
2023-04-22T08:52:17.694Z,16.71
2023-04-22T08:54:46.279Z,16.74
2023-04-22T08:57:17.706Z,17.00
2023-04-22T08:59:46.759Z,16.81
2023-04-22T09:02:18.887Z,17.24
2023-04-22T09:04:48.993Z,17.45
2023-04-22T09:07:26.269Z,17.73
2023-04-22T09:09:55.016Z,17.97
2023-04-22T09:12:23.348Z,18.12
2023-04-22T09:14:52.840Z,17.89
2023-04-22T09:17:32.293Z,17.43
2023-04-22T09:20:01.165Z,17.16
2023-04-22T09:22:40.080Z,16.98
2023-04-22T09:25:16.080Z,16.97
2023-04-22T09:27:44.375Z,16.95
2023-04-22T09:30:14.814Z,16.95
2023-04-22T09:32:43.209Z,17.01
2023-04-22T09:35:11.271Z,17.25
2023-04-22T09:37:49.245Z,17.08
2023-04-22T09:40:19.623Z,16.94
2023-04-22T09:42:51.176Z,16.78
2023-04-22T09:45:30.057Z,16.76
2023-04-22T09:48:01.124Z,16.67
2023-04-22T09:50:30.546Z,16.61
2023-04-22T09:53:02.055Z,17.17
2023-04-22T09:55:32.377Z,17.10
2023-04-22T09:58:07.222Z,17.10
2023-04-22T10:00:39.345Z,16.39
2023-04-22T10:03:10.719Z,15.78
2023-04-22T10:05:39.530Z,15.49
2023-04-22T10:08:13.837Z,14.88
2023-04-22T10:10:42.862Z,14.86
2023-04-22T10:13:11.136Z,14.77
2023-04-22T10:15:41.592Z,14.74
2023-04-22T10:18:13.263Z,14.72
2023-04-22T10:20:42.719Z,14.85
2023-04-22T10:23:20.796Z,15.11
2023-04-22T10:25:51.532Z,15.47
2023-04-22T10:28:19.931Z,15.64
2023-04-22T10:30:48.667Z,15.67
2023-04-22T10:33:37.752Z,15.78
2023-04-22T10:36:16.982Z,15.56
2023-04-22T10:39:22.122Z,15.38
2023-04-22T10:42:05.763Z,15.59
2023-04-22T10:44:51.050Z,15.99
2023-04-22T10:47:30.018Z,16.10
2023-04-22T10:50:19.301Z,16.32
2023-04-22T10:52:51.445Z,16.43
2023-04-22T10:55:21.464Z,16.31
2023-04-22T10:57:51.133Z,16.35
2023-04-22T11:00:53.026Z,16.54
2023-04-22T11:03:28.333Z,16.63
2023-04-22T11:06:15.310Z,16.61
2023-04-22T11:08:47.796Z,16.48
2023-04-22T11:11:18.788Z,16.71
2023-04-22T11:13:50.652Z,16.46
2023-04-22T11:16:22.915Z,16.12
2023-04-22T11:18:52.627Z,16.06
2023-04-22T11:21:21.748Z,16.01
2023-04-22T11:23:53.248Z,15.96
2023-04-22T11:26:35.460Z,16.07
2023-04-22T11:29:03.649Z,16.13
2023-04-22T11:31:31.681Z,15.88
2023-04-22T11:34:00.558Z,16.08
2023-04-22T11:36:28.963Z,16.21
2023-04-22T11:38:57.214Z,15.79
2023-04-22T11:41:26.574Z,15.98
2023-04-22T11:43:55.862Z,15.96
2023-04-22T11:46:30.304Z,15.87
2023-04-22T11:49:13.054Z,15.81
2023-04-22T11:51:53.920Z,15.81
2023-04-22T11:54:31.951Z,16.10
2023-04-22T11:57:03.682Z,15.86
2023-04-22T11:59:31.682Z,15.93
2023-04-22T12:01:59.613Z,15.99
2023-04-22T12:04:27.578Z,16.00
2023-04-22T12:06:55.700Z,15.96
2023-04-22T12:09:25.928Z,15.84
2023-04-22T12:11:56.525Z,16.11
2023-04-22T12:14:33.675Z,15.97
2023-04-22T12:17:05.480Z,16.03
2023-04-22T12:19:33.574Z,15.99
2023-04-22T12:22:01.547Z,15.54
2023-04-22T12:24:30.560Z,15.82
2023-04-22T12:26:58.741Z,15.87
2023-04-22T12:29:33.343Z,16.03
2023-04-22T12:32:01.867Z,15.78
2023-04-22T12:34:29.798Z,15.45
2023-04-22T12:36:58.956Z,15.37
2023-04-22T12:39:28.729Z,15.40
2023-04-22T12:41:58.239Z,15.52
2023-04-22T12:44:26.214Z,15.14
2023-04-22T12:46:55.525Z,15.08
2023-04-22T12:49:23.623Z,15.14
2023-04-22T12:51:52.402Z,15.02
2023-04-22T12:54:20.592Z,15.00
2023-04-22T12:56:49.458Z,14.95
2023-04-22T12:59:17.304Z,15.20
2023-04-22T13:01:45.468Z,15.08
2023-04-22T13:04:15.269Z,15.19
2023-04-22T13:06:44.323Z,15.17
2023-04-22T13:09:13.009Z,15.30
2023-04-22T13:11:42.722Z,15.13
2023-04-22T13:14:12.015Z,14.96
2023-04-22T13:16:40.207Z,15.49
2023-04-22T13:19:10.846Z,15.70
2023-04-22T13:21:40.212Z,15.75
2023-04-22T13:24:09.006Z,15.54
2023-04-22T13:26:38.594Z,15.48
2023-04-22T13:29:11.178Z,15.64
2023-04-22T13:31:39.739Z,15.66
2023-04-22T13:34:07.856Z,15.63
2023-04-22T13:36:35.811Z,15.76
2023-04-22T13:39:06.243Z,15.96
2023-04-22T13:41:34.169Z,16.16
2023-04-22T13:44:04.058Z,16.35
2023-04-22T13:46:32.339Z,16.32
2023-04-22T13:49:00.507Z,16.25
2023-04-22T13:51:28.723Z,16.27
2023-04-22T13:53:56.870Z,16.40
2023-04-22T13:56:26.330Z,16.37
2023-04-22T13:58:55.738Z,16.28
2023-04-22T14:01:25.205Z,16.26
2023-04-22T14:03:54.996Z,16.57
2023-04-22T14:06:23.439Z,16.65
2023-04-22T14:08:53.209Z,16.70
2023-04-22T14:11:21.287Z,16.67
2023-04-22T14:13:50.919Z,16.56
2023-04-22T14:16:19.971Z,16.84
2023-04-22T14:18:48.338Z,16.86
2023-04-22T14:21:16.454Z,16.86
2023-04-22T14:23:44.777Z,17.04
2023-04-22T14:26:14.032Z,16.91
2023-04-22T14:28:42.962Z,16.91
2023-04-22T14:31:12.476Z,17.09
2023-04-22T14:33:41.294Z,17.22
2023-04-22T14:36:09.565Z,16.94
2023-04-22T14:38:37.754Z,16.77
2023-04-22T14:41:06.492Z,16.70
2023-04-22T14:43:34.823Z,16.68
2023-04-22T14:46:03.162Z,16.90
2023-04-22T14:48:35.434Z,16.92
2023-04-22T14:51:05.306Z,16.85
2023-04-22T14:53:33.312Z,17.34
2023-04-22T14:56:01.529Z,17.29
2023-04-22T14:58:31.710Z,17.16
2023-04-22T15:01:00.844Z,17.04
2023-04-22T15:03:29.368Z,17.15
2023-04-22T15:05:59.084Z,17.07
2023-04-22T15:08:27.451Z,16.99
2023-04-22T15:10:55.701Z,16.95
2023-04-22T15:13:23.795Z,16.87
2023-04-22T15:15:51.826Z,16.73
2023-04-22T15:18:20.092Z,16.60
2023-04-22T15:20:48.124Z,16.44
2023-04-22T15:23:17.637Z,16.52
2023-04-22T15:25:46.126Z,16.49
2023-04-22T15:28:14.154Z,16.58
2023-04-22T15:30:42.096Z,16.47
2023-04-22T15:33:10.314Z,16.28
2023-04-22T15:35:38.621Z,16.24
2023-04-22T15:38:07.990Z,16.39
2023-04-22T15:40:37.516Z,16.30
2023-04-22T15:43:05.857Z,16.30
2023-04-22T15:45:35.318Z,16.17
2023-04-22T15:48:03.380Z,16.10
2023-04-22T15:50:31.848Z,16.08
2023-04-22T15:52:59.744Z,16.05
2023-04-22T15:55:27.830Z,15.96
2023-04-22T15:57:57.655Z,15.96
2023-04-22T16:00:26.222Z,15.86
2023-04-22T16:02:56.242Z,15.83
2023-04-22T16:05:25.320Z,15.79
2023-04-22T16:07:54.076Z,15.74
2023-04-22T16:10:22.991Z,15.70
2023-04-22T16:12:51.437Z,15.78
2023-04-22T16:15:23.688Z,15.85
2023-04-22T16:17:52.021Z,15.94
2023-04-22T16:20:20.040Z,15.77
2023-04-22T16:22:48.527Z,15.71
2023-04-22T16:25:17.323Z,15.48
2023-04-22T16:27:45.669Z,15.31
2023-04-22T16:30:16.229Z,15.22
2023-04-22T16:32:45.954Z,15.18
2023-04-22T16:35:14.005Z,15.06
2023-04-22T16:37:42.108Z,14.85
2023-04-22T16:40:11.073Z,14.73
2023-04-22T16:42:39.405Z,14.56
2023-04-22T16:45:08.760Z,14.47
2023-04-22T16:47:36.974Z,14.35
2023-04-22T16:50:08.117Z,14.28
2023-04-22T16:52:36.023Z,14.27
2023-04-22T16:55:05.418Z,14.16
2023-04-22T16:57:34.096Z,14.19
2023-04-22T17:00:02.393Z,14.11
2023-04-22T17:02:31.061Z,14.16
2023-04-22T17:05:01.269Z,14.07
2023-04-22T17:07:30.537Z,14.04
2023-04-22T17:09:58.557Z,13.85
2023-04-22T17:12:26.673Z,14.01
2023-04-22T17:14:54.870Z,14.01
2023-04-22T17:17:22.931Z,13.91
2023-04-22T17:19:51.166Z,13.79
2023-04-22T17:22:19.263Z,13.65
2023-04-22T17:24:49.050Z,13.54
2023-04-22T17:27:18.260Z,13.35
2023-04-22T17:29:46.628Z,13.42
2023-04-22T17:32:14.893Z,13.47
2023-04-22T17:34:43.506Z,13.48
2023-04-22T17:37:11.875Z,13.39
2023-04-22T17:39:40.618Z,13.35
2023-04-22T17:42:10.368Z,13.29
2023-04-22T17:44:38.486Z,13.25
2023-04-22T17:47:07.699Z,13.19
2023-04-22T17:49:35.761Z,13.22
2023-04-22T17:52:03.762Z,13.15
2023-04-22T17:54:32.218Z,13.01
2023-04-22T17:57:02.233Z,12.92
2023-04-22T17:59:31.613Z,12.81
2023-04-22T18:02:01.417Z,12.75
2023-04-22T18:04:29.743Z,12.78
2023-04-22T18:06:57.766Z,12.65
2023-04-22T18:09:27.407Z,12.59
2023-04-22T18:11:58.408Z,12.45
2023-04-22T18:14:26.841Z,12.54
2023-04-22T18:16:56.696Z,12.54
2023-04-22T18:19:24.914Z,12.51
2023-04-22T18:21:59.656Z,12.50
2023-04-22T18:24:28.730Z,12.48
2023-04-22T18:26:58.159Z,12.52
2023-04-22T18:29:26.377Z,12.51
2023-04-22T18:31:55.979Z,12.52
2023-04-22T18:34:24.284Z,12.49
2023-04-22T18:36:52.492Z,12.35
2023-04-22T18:39:21.233Z,12.23
2023-04-22T18:41:49.296Z,12.09
2023-04-22T18:44:17.365Z,12.00
2023-04-22T18:46:46.017Z,12.00
2023-04-22T18:49:15.407Z,11.93
2023-04-22T18:51:43.438Z,11.88
2023-04-22T18:54:11.369Z,11.83
2023-04-22T18:56:39.276Z,11.82
2023-04-22T18:59:07.354Z,11.78
2023-04-22T19:01:35.805Z,11.79
2023-04-22T19:04:04.579Z,11.56
2023-04-22T19:06:33.992Z,11.70
2023-04-22T19:09:02.376Z,11.57
2023-04-22T19:11:30.586Z,11.54
2023-04-22T19:13:58.689Z,11.37
2023-04-22T19:16:26.759Z,11.52
2023-04-22T19:18:55.115Z,11.56
2023-04-22T19:21:23.599Z,11.54
2023-04-22T19:23:53.055Z,11.56
2023-04-22T19:26:21.382Z,11.61
2023-04-22T19:28:49.557Z,11.38
2023-04-22T19:31:18.754Z,11.57
2023-04-22T19:33:47.130Z,11.55
2023-04-22T19:36:15.321Z,11.55
2023-04-22T19:38:43.350Z,11.56
2023-04-22T19:41:13.696Z,11.62
2023-04-22T19:43:42.021Z,11.55
2023-04-22T19:46:10.063Z,11.21
2023-04-22T19:48:38.658Z,11.51
2023-04-22T19:51:07.620Z,11.48
2023-04-22T19:53:37.106Z,11.33
2023-04-22T19:56:05.148Z,11.34
2023-04-22T19:58:34.859Z,11.24
2023-04-22T20:01:03.818Z,11.27
2023-04-22T20:03:33.148Z,11.30
2023-04-22T20:06:03.064Z,11.33
2023-04-22T20:08:32.115Z,11.52
2023-04-22T20:11:00.751Z,11.30
2023-04-22T20:13:29.152Z,11.15
2023-04-22T20:16:01.082Z,11.04
2023-04-22T20:18:29.546Z,10.88
2023-04-22T20:20:59.228Z,10.72
2023-04-22T20:23:28.705Z,10.64
2023-04-22T20:25:58.000Z,10.80
2023-04-22T20:28:43.154Z,10.70
2023-04-22T20:31:13.136Z,10.65
2023-04-22T20:33:41.654Z,10.72
2023-04-22T20:36:11.855Z,10.59
2023-04-22T20:38:40.178Z,10.47
2023-04-22T20:41:10.293Z,10.44
2023-04-22T20:43:38.604Z,10.38
2023-04-22T20:46:06.782Z,10.26
2023-04-22T20:48:36.622Z,10.19
2023-04-22T20:51:05.733Z,10.06
2023-04-22T20:53:34.155Z,9.92
2023-04-22T20:56:02.218Z,9.87
2023-04-22T20:58:30.393Z,9.82
2023-04-22T21:00:58.299Z,9.79
2023-04-22T21:03:29.091Z,9.74
2023-04-22T21:05:59.824Z,9.69
2023-04-22T21:08:28.048Z,9.72
2023-04-22T21:10:57.839Z,9.63
2023-04-22T21:13:26.638Z,9.67
2023-04-22T21:15:59.118Z,9.67
2023-04-22T21:18:29.305Z,9.60
2023-04-22T21:20:59.909Z,9.75
2023-04-22T21:23:28.544Z,9.78
2023-04-22T21:25:57.705Z,9.77
2023-04-22T21:28:27.637Z,9.72
2023-04-22T21:30:56.347Z,9.99
2023-04-22T21:33:25.377Z,9.91
2023-04-22T21:35:53.509Z,9.94
2023-04-22T21:38:23.257Z,9.89
2023-04-22T21:40:51.293Z,9.90
2023-04-22T21:43:19.220Z,9.88
2023-04-22T21:45:47.100Z,9.91
2023-04-22T21:48:15.071Z,9.94
2023-04-22T21:50:43.420Z,9.95
2023-04-22T21:53:12.079Z,9.98
2023-04-22T21:55:42.673Z,9.84
2023-04-22T21:58:10.719Z,9.85
2023-04-22T22:00:39.012Z,9.77
2023-04-22T22:03:08.550Z,9.69
2023-04-22T22:05:37.867Z,9.67
2023-04-22T22:08:05.833Z,9.66
2023-04-22T22:10:34.068Z,9.53
2023-04-22T22:13:03.640Z,9.56
2023-04-22T22:15:31.841Z,9.53
2023-04-22T22:18:00.045Z,9.39
2023-04-22T22:20:29.754Z,9.36
2023-04-22T22:22:58.049Z,9.23
2023-04-22T22:25:26.244Z,9.25
2023-04-22T22:27:54.181Z,9.21
2023-04-22T22:30:23.707Z,9.35
2023-04-22T22:32:52.931Z,9.33
2023-04-22T22:35:21.298Z,9.31
2023-04-22T22:37:49.820Z,9.36
2023-04-22T22:40:18.054Z,9.09
2023-04-22T22:42:45.991Z,9.37
2023-04-22T22:45:14.565Z,9.42
2023-04-22T22:47:44.061Z,9.41
2023-04-22T22:50:12.666Z,9.40
2023-04-22T22:52:41.110Z,9.39
2023-04-22T22:55:10.199Z,9.45
2023-04-22T22:57:38.172Z,9.54
2023-04-22T23:00:09.479Z,9.58
2023-04-22T23:02:37.928Z,9.39
2023-04-22T23:05:11.149Z,9.51
2023-04-22T23:07:39.124Z,9.50
2023-04-22T23:10:08.985Z,9.39
2023-04-22T23:12:36.985Z,9.39
2023-04-22T23:15:05.830Z,9.41
2023-04-22T23:17:33.968Z,9.33
2023-04-22T23:20:02.741Z,9.43
2023-04-22T23:22:33.799Z,9.46
2023-04-22T23:25:02.306Z,9.43
2023-04-22T23:27:31.805Z,9.49
2023-04-22T23:30:00.437Z,9.42
2023-04-22T23:32:30.350Z,9.49
2023-04-22T23:35:01.328Z,9.50
2023-04-22T23:37:31.656Z,9.35
2023-04-22T23:40:00.974Z,9.31
2023-04-22T23:42:29.106Z,9.16
2023-04-22T23:44:58.466Z,9.32
2023-04-22T23:47:26.652Z,9.46
2023-04-22T23:49:54.683Z,9.39
2023-04-22T23:52:23.652Z,9.40
2023-04-22T23:54:55.124Z,9.34
2023-04-22T23:57:25.520Z,9.34
2023-04-22T23:59:54.003Z,9.19
